createdAt,value
2022-11-19T00:01:05.850Z,-2.06
2022-11-19T00:03:52.426Z,-2.00
2022-11-19T00:06:34.499Z,-2.06
2022-11-19T00:09:15.992Z,-2.10
2022-11-19T00:12:14.334Z,-2.16
2022-11-19T00:14:54.981Z,-2.21
2022-11-19T00:17:35.709Z,-2.22
2022-11-19T00:20:17.512Z,-2.23
2022-11-19T00:22:58.372Z,-2.28
2022-11-19T00:25:38.286Z,-2.24
2022-11-19T00:28:18.130Z,-2.34
2022-11-19T00:31:03.484Z,-2.30
2022-11-19T00:33:46.874Z,-2.37
2022-11-19T00:36:29.128Z,-2.38
2022-11-19T00:39:08.602Z,-2.39
2022-11-19T00:41:48.349Z,-2.39
2022-11-19T00:44:32.577Z,-2.49
2022-11-19T00:47:15.954Z,-2.50
2022-11-19T00:49:56.295Z,-2.48
2022-11-19T00:52:35.572Z,-2.54
2022-11-19T00:55:17.373Z,-2.56
2022-11-19T00:57:56.870Z,-2.69
2022-11-19T01:00:36.624Z,-2.64
2022-11-19T01:03:16.407Z,-2.63
2022-11-19T01:05:56.384Z,-2.68
2022-11-19T01:08:36.484Z,-2.67
2022-11-19T01:11:17.654Z,-2.67
2022-11-19T01:13:58.762Z,-2.75
2022-11-19T01:16:40.383Z,-2.74
2022-11-19T01:19:20.304Z,-2.73
2022-11-19T01:22:01.868Z,-2.89
2022-11-19T01:24:41.262Z,-2.94
2022-11-19T01:27:21.028Z,-2.94
2022-11-19T01:30:02.883Z,-2.92
2022-11-19T01:32:42.260Z,-2.87
2022-11-19T01:35:24.123Z,-2.89
2022-11-19T01:38:06.111Z,-2.94
2022-11-19T01:40:48.484Z,-2.95
2022-11-19T01:43:45.328Z,-3.00
2022-11-19T01:46:27.650Z,-2.97
2022-11-19T01:59:33.391Z,-3.17
2022-11-19T02:02:14.630Z,-3.17
2022-11-19T02:04:57.125Z,-3.12
2022-11-19T02:07:37.211Z,-3.18
2022-11-19T02:10:19.229Z,-3.17
2022-11-19T02:13:25.537Z,-3.15
2022-11-19T02:16:08.029Z,-3.16
2022-11-19T02:18:51.735Z,-3.16
2022-11-19T02:21:37.394Z,-3.18
2022-11-19T02:24:48.645Z,-3.18
2022-11-19T02:28:04.411Z,-3.22
2022-11-19T02:30:49.063Z,-3.25
2022-11-19T02:33:32.076Z,-3.29
2022-11-19T02:36:18.347Z,-3.32
2022-11-19T02:39:05.531Z,-3.39
2022-11-19T02:41:53.307Z,-3.31
2022-11-19T02:44:53.959Z,-3.32
2022-11-19T02:47:36.503Z,-3.32
2022-11-19T02:50:20.912Z,-3.29
2022-11-19T02:53:00.504Z,-3.34
2022-11-19T02:55:40.839Z,-3.35
2022-11-19T02:58:37.002Z,-3.39
2022-11-19T03:01:36.002Z,-3.32
2022-11-19T03:04:32.364Z,-3.34
2022-11-19T03:07:15.946Z,-3.35
2022-11-19T03:09:57.601Z,-3.36
2022-11-19T03:12:44.887Z,-3.41
2022-11-19T03:15:50.501Z,-3.41
2022-11-19T03:18:33.512Z,-3.37
2022-11-19T03:21:22.318Z,-3.38
2022-11-19T03:24:07.034Z,-3.42
2022-11-19T03:26:50.203Z,-3.50
2022-11-19T03:29:33.969Z,-3.47
2022-11-19T03:32:15.988Z,-3.59
2022-11-19T03:35:00.623Z,-3.61
2022-11-19T03:37:42.043Z,-3.72
2022-11-19T03:40:25.031Z,-3.71
2022-11-19T03:43:07.864Z,-3.74
2022-11-19T03:45:50.451Z,-3.71
2022-11-19T03:48:31.788Z,-3.70
2022-11-19T03:51:14.861Z,-3.68
2022-11-19T03:53:54.423Z,-3.70
2022-11-19T03:56:36.364Z,-3.73
2022-11-19T03:59:17.919Z,-3.76
2022-11-19T04:01:58.699Z,-3.73
2022-11-19T04:04:38.998Z,-3.70
2022-11-19T04:07:22.931Z,-3.71
2022-11-19T04:10:05.412Z,-3.78
2022-11-19T04:12:45.919Z,-3.73
2022-11-19T04:15:25.578Z,-3.77
2022-11-19T04:18:07.402Z,-3.79
2022-11-19T04:20:47.000Z,-3.82
2022-11-19T04:23:26.590Z,-3.77
2022-11-19T04:26:08.565Z,-3.78
2022-11-19T04:28:47.794Z,-3.81
2022-11-19T04:31:27.610Z,-3.92
2022-11-19T04:34:10.426Z,-3.89
2022-11-19T04:36:50.382Z,-3.91
2022-11-19T04:39:30.429Z,-3.92
2022-11-19T04:42:12.374Z,-3.95
2022-11-19T04:44:53.340Z,-3.90
2022-11-19T04:47:33.175Z,-3.89
2022-11-19T04:50:13.325Z,-3.89
2022-11-19T04:52:53.049Z,-3.93
2022-11-19T04:55:33.872Z,-3.95
2022-11-19T04:58:16.039Z,-3.99
2022-11-19T05:00:55.404Z,-3.97
2022-11-19T05:03:35.188Z,-4.02
2022-11-19T05:06:14.935Z,-3.94
2022-11-19T05:08:54.455Z,-4.04
2022-11-19T05:11:34.256Z,-4.01
2022-11-19T05:14:14.079Z,-4.02
2022-11-19T05:16:55.868Z,-4.09
2022-11-19T05:19:35.272Z,-4.10
2022-11-19T05:22:15.181Z,-4.09
2022-11-19T05:24:56.942Z,-4.08
2022-11-19T05:27:38.349Z,-4.07
2022-11-19T05:30:19.900Z,-4.08
2022-11-19T05:33:01.174Z,-4.09
2022-11-19T05:35:42.503Z,-4.10
2022-11-19T05:38:24.032Z,-4.07
2022-11-19T05:41:05.506Z,-4.08
2022-11-19T05:43:44.730Z,-4.09
2022-11-19T05:46:24.543Z,-4.12
2022-11-19T05:49:04.454Z,-4.12
2022-11-19T05:51:44.170Z,-4.12
2022-11-19T05:54:26.065Z,-4.14
2022-11-19T05:57:05.523Z,-4.18
2022-11-19T05:59:47.232Z,-4.24
2022-11-19T06:02:28.675Z,-4.22
2022-11-19T06:05:11.350Z,-4.26
2022-11-19T06:07:53.097Z,-4.30
2022-11-19T06:10:32.451Z,-4.32
2022-11-19T06:13:12.268Z,-4.30
2022-11-19T06:15:52.066Z,-4.34
2022-11-19T06:18:32.602Z,-4.40
2022-11-19T06:21:13.279Z,-4.43
2022-11-19T06:23:55.045Z,-4.43
2022-11-19T06:26:34.724Z,-4.42
2022-11-19T06:29:35.097Z,-4.43
2022-11-19T06:32:13.659Z,-4.48
2022-11-19T06:34:53.134Z,-4.48
2022-11-19T06:37:33.609Z,-4.51
2022-11-19T06:40:15.608Z,-4.53
2022-11-19T06:42:57.446Z,-4.58
2022-11-19T06:45:37.120Z,-4.60
2022-11-19T06:48:18.958Z,-4.63
2022-11-19T06:51:02.542Z,-4.65
2022-11-19T06:53:42.910Z,-4.68
2022-11-19T06:56:22.734Z,-4.66
2022-11-19T06:59:02.699Z,-4.65
2022-11-19T07:01:42.424Z,-4.64
2022-11-19T07:04:22.155Z,-4.66
2022-11-19T07:07:04.330Z,-4.66
2022-11-19T07:10:04.334Z,-4.69
2022-11-19T07:12:43.967Z,-4.68
2022-11-19T07:15:25.772Z,-4.69
2022-11-19T07:18:05.381Z,-4.75
2022-11-19T07:20:47.496Z,-4.78
2022-11-19T07:23:27.976Z,-4.80
2022-11-19T07:26:07.900Z,-4.83
2022-11-19T07:28:49.777Z,-4.84
2022-11-19T07:31:31.153Z,-4.84
2022-11-19T07:34:11.669Z,-4.79
2022-11-19T07:37:03.687Z,-4.78
2022-11-19T07:39:43.394Z,-4.79
2022-11-19T07:42:42.676Z,-4.75
2022-11-19T07:45:23.932Z,-4.76
2022-11-19T07:48:03.620Z,-4.69
2022-11-19T07:50:43.507Z,-4.69
2022-11-19T07:53:23.231Z,-4.64
2022-11-19T07:56:03.876Z,-4.63
2022-11-19T07:58:44.900Z,-4.63
2022-11-19T08:01:24.802Z,-4.59
2022-11-19T08:04:05.139Z,-4.59
2022-11-19T08:06:47.474Z,-4.53
2022-11-19T08:09:26.879Z,-4.52
2022-11-19T08:12:07.159Z,-4.46
2022-11-19T08:14:48.492Z,-4.43
2022-11-19T08:17:52.748Z,-4.39
2022-11-19T08:20:33.323Z,-4.33
2022-11-19T08:23:13.646Z,-4.27
2022-11-19T08:25:54.878Z,-4.28
2022-11-19T08:28:36.318Z,-4.24
2022-11-19T08:31:18.056Z,-4.18
2022-11-19T08:33:57.473Z,-4.15
2022-11-19T08:36:36.919Z,-4.14
2022-11-19T08:39:18.861Z,-4.15
2022-11-19T08:42:15.489Z,-4.07
2022-11-19T08:44:56.248Z,-4.06
2022-11-19T08:47:37.002Z,-4.01
2022-11-19T08:50:18.975Z,-3.98
2022-11-19T08:53:02.203Z,-3.90
2022-11-19T08:55:42.825Z,-3.89
2022-11-19T08:58:22.686Z,-3.86
2022-11-19T09:01:09.526Z,-3.83
2022-11-19T09:03:50.269Z,-3.78
2022-11-19T09:06:30.021Z,-3.75
2022-11-19T09:09:09.864Z,-3.71
2022-11-19T09:11:49.628Z,-3.65
2022-11-19T09:14:31.626Z,-3.58
2022-11-19T09:17:14.594Z,-3.51
2022-11-19T09:19:53.830Z,-3.46
2022-11-19T09:22:38.640Z,-3.38
2022-11-19T09:25:29.366Z,-3.28
2022-11-19T09:28:11.139Z,-3.21
2022-11-19T09:30:57.234Z,-3.17
2022-11-19T09:33:42.039Z,-3.16
2022-11-19T09:36:21.606Z,-3.08
2022-11-19T09:39:03.610Z,-3.01
2022-11-19T09:41:49.618Z,-2.98
2022-11-19T09:44:37.475Z,-2.92
2022-11-19T09:47:27.148Z,-2.83
2022-11-19T09:50:16.104Z,-2.76
2022-11-19T09:52:57.893Z,-2.71
2022-11-19T09:55:42.001Z,-2.61
2022-11-19T09:58:24.103Z,-2.58
2022-11-19T10:01:05.142Z,-2.55
2022-11-19T10:03:50.534Z,-2.46
2022-11-19T10:06:31.558Z,-2.40
2022-11-19T10:09:25.490Z,-2.35
2022-11-19T10:12:28.278Z,-2.33
2022-11-19T10:15:17.625Z,-2.27
2022-11-19T10:18:06.492Z,-2.18
2022-11-19T10:20:57.194Z,-2.14
2022-11-19T10:23:47.372Z,-2.09
2022-11-19T10:26:39.004Z,-2.05
2022-11-19T10:29:21.859Z,-2.00
2022-11-19T10:32:21.855Z,-1.95
2022-11-19T10:35:10.441Z,-1.91
2022-11-19T10:37:54.632Z,-1.90
2022-11-19T10:40:38.771Z,-1.86
2022-11-19T10:43:24.761Z,-1.80
2022-11-19T10:46:05.486Z,-1.75
2022-11-19T10:48:48.492Z,-1.71
2022-11-19T10:51:30.962Z,-1.62
2022-11-19T10:54:22.727Z,-1.58
2022-11-19T10:57:02.900Z,-1.50
2022-11-19T10:59:42.990Z,-1.39
2022-11-19T11:02:31.888Z,-1.19
2022-11-19T11:05:22.380Z,-0.90
2022-11-19T11:08:11.420Z,-0.58
2022-11-19T11:10:52.007Z,-0.22
2022-11-19T11:13:56.024Z,0.20
2022-11-19T11:16:46.857Z,0.53
2022-11-19T11:19:27.483Z,0.96
2022-11-19T11:22:05.639Z,1.40
2022-11-19T11:24:45.441Z,1.77
2022-11-19T11:27:30.791Z,2.10
2022-11-19T11:30:19.408Z,2.48
2022-11-19T11:32:59.034Z,2.78
2022-11-19T11:35:39.427Z,2.98
2022-11-19T11:38:21.457Z,2.97
2022-11-19T11:41:43.962Z,3.32
2022-11-19T11:44:09.055Z,3.30
2022-11-19T11:47:02.579Z,3.67
2022-11-19T11:49:46.984Z,3.89
2022-11-19T11:52:33.941Z,4.03
2022-11-19T11:55:17.309Z,4.21
2022-11-19T11:58:00.268Z,4.14
2022-11-19T12:00:43.401Z,4.12
2022-11-19T12:03:23.228Z,4.41
2022-11-19T12:06:09.737Z,4.61
2022-11-19T12:08:51.975Z,4.70
2022-11-19T12:11:49.669Z,4.60
2022-11-19T12:14:31.378Z,4.81
2022-11-19T12:17:19.928Z,4.79
2022-11-19T12:20:14.147Z,4.85
2022-11-19T12:23:04.904Z,4.92
2022-11-19T12:25:53.659Z,4.63
2022-11-19T12:28:49.523Z,4.76
2022-11-19T12:31:38.957Z,4.98
2022-11-19T12:34:45.074Z,5.16
2022-11-19T12:37:40.415Z,5.16
2022-11-19T12:40:38.538Z,5.42
2022-11-19T12:43:32.220Z,5.38
2022-11-19T12:46:20.391Z,5.40
2022-11-19T12:49:12.034Z,5.42
2022-11-19T12:51:58.463Z,5.44
2022-11-19T12:54:51.270Z,5.43
2022-11-19T12:57:40.387Z,5.38
2022-11-19T13:00:23.568Z,5.31
2022-11-19T13:03:11.380Z,5.28
2022-11-19T13:05:53.338Z,5.19
2022-11-19T13:08:36.739Z,5.09
2022-11-19T13:11:19.514Z,5.14
2022-11-19T13:14:02.071Z,5.20
2022-11-19T13:16:43.264Z,5.20
2022-11-19T13:19:25.691Z,5.29
2022-11-19T13:22:33.212Z,5.37
2022-11-19T13:25:20.158Z,5.49
2022-11-19T13:28:00.616Z,5.63
2022-11-19T13:30:42.931Z,5.77
2022-11-19T13:33:26.308Z,5.88
2022-11-19T13:36:11.582Z,5.93
2022-11-19T13:38:54.447Z,5.83
2022-11-19T13:42:01.066Z,5.88
2022-11-19T13:44:44.811Z,5.80
2022-11-19T13:47:26.280Z,5.42
2022-11-19T13:50:15.607Z,5.31
2022-11-19T13:52:58.731Z,5.15
2022-11-19T13:55:40.774Z,5.04
2022-11-19T13:58:24.059Z,4.82
2022-11-19T14:01:14.617Z,4.59
2022-11-19T14:04:04.068Z,4.50
2022-11-19T14:06:56.754Z,4.38
2022-11-19T14:09:41.120Z,4.16
2022-11-19T14:12:39.392Z,3.88
2022-11-19T14:15:49.248Z,3.62
2022-11-19T14:18:54.753Z,3.56
2022-11-19T14:22:08.084Z,3.37
2022-11-19T14:25:17.518Z,3.29
2022-11-19T14:28:42.712Z,3.19
2022-11-19T14:31:22.864Z,3.08
2022-11-19T14:34:05.419Z,2.99
2022-11-19T14:36:47.665Z,2.85
2022-11-19T14:39:31.118Z,2.75
2022-11-19T14:42:16.612Z,2.55
2022-11-19T14:45:20.680Z,2.42
2022-11-19T14:48:05.311Z,2.33
2022-11-19T14:50:44.649Z,2.24
2022-11-19T14:53:23.201Z,2.14
2022-11-19T14:56:02.683Z,2.01
2022-11-19T14:58:51.220Z,1.93
2022-11-19T15:01:31.921Z,1.81
2022-11-19T15:04:13.486Z,1.73
2022-11-19T15:06:53.380Z,1.66
2022-11-19T15:10:08.315Z,1.52
2022-11-19T15:12:50.932Z,1.41
2022-11-19T15:15:36.426Z,1.29
2022-11-19T15:18:46.848Z,1.20
2022-11-19T15:22:00.653Z,1.06
2022-11-19T15:24:54.620Z,0.94
2022-11-19T15:27:46.789Z,0.83
2022-11-19T15:30:39.124Z,0.74
2022-11-19T15:33:45.501Z,0.65
2022-11-19T15:36:31.624Z,0.53
2022-11-19T15:39:15.231Z,0.46
2022-11-19T15:42:02.101Z,0.36
2022-11-19T15:44:46.535Z,0.27
2022-11-19T15:47:34.750Z,0.17
2022-11-19T15:50:18.787Z,0.09
2022-11-19T15:53:02.609Z,0.01
2022-11-19T15:55:57.936Z,-0.10
2022-11-19T15:58:39.336Z,-0.18
2022-11-19T16:01:18.960Z,-0.24
2022-11-19T16:03:58.814Z,-0.29
2022-11-19T16:06:40.008Z,-0.35
2022-11-19T16:09:22.360Z,-0.43
2022-11-19T16:12:21.076Z,-0.52
2022-11-19T16:15:19.085Z,-0.57
2022-11-19T16:17:59.784Z,-0.65
2022-11-19T16:20:40.709Z,-0.71
2022-11-19T16:23:22.288Z,-0.80
2022-11-19T16:26:03.888Z,-0.86
2022-11-19T16:28:43.188Z,-0.93
2022-11-19T16:31:23.120Z,-0.98
2022-11-19T16:34:02.823Z,-1.03
2022-11-19T16:36:48.752Z,-1.09
2022-11-19T16:39:30.682Z,-1.13
2022-11-19T16:42:19.422Z,-1.17
2022-11-19T16:45:07.476Z,-1.27
2022-11-19T16:48:02.959Z,-1.34
2022-11-19T16:50:46.688Z,-1.36
2022-11-19T16:53:45.936Z,-1.38
2022-11-19T16:56:26.069Z,-1.42
2022-11-19T16:59:05.692Z,-1.47
2022-11-19T17:01:52.227Z,-1.49
2022-11-19T17:04:32.407Z,-1.52
2022-11-19T17:07:14.418Z,-1.59
2022-11-19T17:10:30.058Z,-1.64
2022-11-19T17:13:28.098Z,-1.71
2022-11-19T17:16:18.999Z,-1.75
2022-11-19T17:19:01.562Z,-1.77
2022-11-19T17:21:40.864Z,-1.80
2022-11-19T17:24:26.535Z,-1.83
2022-11-19T17:27:13.176Z,-1.86
2022-11-19T17:29:55.352Z,-1.90
2022-11-19T17:32:40.667Z,-1.94
2022-11-19T17:35:33.950Z,-1.96
2022-11-19T17:38:14.386Z,-1.99
2022-11-19T17:40:57.404Z,-2.02
2022-11-19T17:43:55.531Z,-2.05
2022-11-19T17:46:33.862Z,-2.08
2022-11-19T17:49:13.425Z,-2.21
2022-11-19T17:51:52.432Z,-2.25
2022-11-19T17:54:33.325Z,-2.28
2022-11-19T17:57:26.229Z,-2.31
2022-11-19T18:00:07.148Z,-2.32
2022-11-19T18:02:48.653Z,-2.37
2022-11-19T18:05:33.541Z,-2.36
2022-11-19T18:08:13.404Z,-2.39
2022-11-19T18:10:53.201Z,-2.42
2022-11-19T18:13:33.702Z,-2.49
2022-11-19T18:16:34.857Z,-2.54
2022-11-19T18:19:24.921Z,-2.56
2022-11-19T18:22:06.040Z,-2.51
2022-11-19T18:24:47.383Z,-2.48
2022-11-19T18:27:28.208Z,-2.51
2022-11-19T18:30:09.830Z,-2.53
2022-11-19T18:32:48.910Z,-2.55
2022-11-19T18:35:49.744Z,-2.56
2022-11-19T18:38:30.446Z,-2.61
2022-11-19T18:41:11.777Z,-2.61
2022-11-19T18:44:09.011Z,-2.58
2022-11-19T18:46:49.694Z,-2.63
2022-11-19T18:49:30.634Z,-2.68
2022-11-19T18:52:14.863Z,-2.68
2022-11-19T18:54:57.103Z,-2.70
2022-11-19T18:57:38.050Z,-2.72
2022-11-19T19:00:20.428Z,-2.74
2022-11-19T19:03:03.093Z,-2.76
2022-11-19T19:05:44.313Z,-2.80
2022-11-19T19:08:23.506Z,-2.81
2022-11-19T19:11:16.041Z,-2.80
2022-11-19T19:13:55.928Z,-2.82
2022-11-19T19:16:35.751Z,-2.85
2022-11-19T19:19:17.190Z,-2.90
2022-11-19T19:21:56.936Z,-2.92
2022-11-19T19:24:36.885Z,-2.90
2022-11-19T19:27:16.678Z,-2.94
2022-11-19T19:29:58.612Z,-2.96
2022-11-19T19:32:39.362Z,-2.97
2022-11-19T19:35:19.212Z,-2.99
2022-11-19T19:37:59.020Z,-3.03
2022-11-19T19:40:40.841Z,-3.03
2022-11-19T19:43:20.266Z,-3.04
2022-11-19T19:46:05.271Z,-3.07
2022-11-19T19:48:45.195Z,-3.07
2022-11-19T19:51:26.541Z,-3.09
2022-11-19T19:54:07.618Z,-3.12
2022-11-19T19:56:47.270Z,-3.15
2022-11-19T19:59:27.868Z,-3.15
2022-11-19T20:02:10.268Z,-3.20
2022-11-19T20:04:49.883Z,-3.22
2022-11-19T20:07:29.748Z,-3.24
2022-11-19T20:10:10.288Z,-3.25
2022-11-19T20:13:08.439Z,-3.27
2022-11-19T20:15:48.979Z,-3.30
2022-11-19T20:18:29.847Z,-3.30
2022-11-19T20:21:11.590Z,-3.29
2022-11-19T20:23:51.455Z,-3.31
2022-11-19T20:26:31.765Z,-3.32
2022-11-19T20:29:13.985Z,-3.33
2022-11-19T20:31:53.600Z,-3.31
2022-11-19T20:34:36.336Z,-3.37
2022-11-19T20:37:17.725Z,-3.39
2022-11-19T20:40:16.271Z,-3.41
2022-11-19T20:43:14.329Z,-3.43
2022-11-19T20:46:09.788Z,-3.45
2022-11-19T20:48:50.703Z,-3.47
2022-11-19T20:51:31.593Z,-3.47
2022-11-19T20:54:13.432Z,-3.46
2022-11-19T20:56:54.141Z,-3.48
2022-11-19T20:59:46.027Z,-3.47
2022-11-19T21:02:25.896Z,-3.47
2022-11-19T21:05:06.217Z,-3.47
2022-11-19T21:07:47.471Z,-3.49
2022-11-19T21:10:25.570Z,-3.49
2022-11-19T21:13:07.030Z,-3.48
2022-11-19T21:15:46.419Z,-3.52
2022-11-19T21:18:31.208Z,-3.50
2022-11-19T21:21:19.150Z,-3.52
2022-11-19T21:24:00.617Z,-3.54
2022-11-19T21:26:38.876Z,-3.53
2022-11-19T21:29:18.497Z,-3.54
2022-11-19T21:31:59.056Z,-3.56
2022-11-19T21:34:41.788Z,-3.56
2022-11-19T21:37:22.475Z,-3.57
2022-11-19T21:40:05.739Z,-3.60
2022-11-19T21:42:50.338Z,-3.61
2022-11-19T21:45:31.948Z,-3.63
2022-11-19T21:48:13.639Z,-3.66
2022-11-19T21:50:54.777Z,-3.70
2022-11-19T21:53:34.108Z,-3.69
2022-11-19T21:56:13.951Z,-3.70
2022-11-19T21:58:53.792Z,-3.71
2022-11-19T22:01:33.627Z,-3.74
2022-11-19T22:04:15.494Z,-3.74
2022-11-19T22:06:56.527Z,-3.78
2022-11-19T22:09:36.156Z,-3.78
2022-11-19T22:12:15.970Z,-3.77
2022-11-19T22:14:55.770Z,-3.79
2022-11-19T22:17:35.944Z,-3.80
2022-11-19T22:20:15.486Z,-3.85
2022-11-19T22:22:58.211Z,-3.83
2022-11-19T22:25:38.196Z,-3.87
2022-11-19T22:28:18.010Z,-3.85
2022-11-19T22:30:57.815Z,-3.88
2022-11-19T22:33:38.777Z,-3.90
2022-11-19T22:36:20.277Z,-3.91
2022-11-19T22:39:00.618Z,-3.91
2022-11-19T22:41:42.229Z,-3.91
2022-11-19T22:44:20.750Z,-3.92
2022-11-19T22:47:01.528Z,-3.87
2022-11-19T22:49:44.096Z,-3.87
2022-11-19T22:52:24.248Z,-3.85
2022-11-19T22:55:04.093Z,-3.83
2022-11-19T22:57:43.993Z,-3.83
2022-11-19T23:03:16.535Z,-3.81
2022-11-19T23:05:59.100Z,-3.85
2022-11-19T23:08:39.027Z,-3.83
2022-11-19T23:11:42.189Z,-3.84
2022-11-19T23:14:22.444Z,-3.81
2022-11-19T23:17:04.446Z,-3.78
2022-11-19T23:19:45.162Z,-3.79
2022-11-19T23:22:36.747Z,-3.79
2022-11-19T23:25:19.704Z,-3.78
2022-11-19T23:27:59.557Z,-3.79
2022-11-19T23:30:39.512Z,-3.81
2022-11-19T23:33:21.931Z,-3.81
2022-11-19T23:36:04.471Z,-3.84
2022-11-19T23:38:45.559Z,-3.87
2022-11-19T23:41:27.811Z,-3.91
2022-11-19T23:44:08.059Z,-3.94
2022-11-19T23:46:47.817Z,-3.97
2022-11-19T23:49:27.611Z,-3.98
2022-11-19T23:52:07.556Z,-3.98
2022-11-19T23:54:47.221Z,-4.03
2022-11-19T23:57:29.137Z,-4.05
